Time;durP1;ratioP1;P1;durP2;ratioP2;P2;SDS_P1;SDS_P2;PMS_P1;PMS_P2;Temp;Humidity;BMP_temperature;BMP_pressure;BME280_temperature;BME280_humidity;BME280_pressure;Samples;Min_cycle;Max_cycle;Signal;HPM_P1;HPM_P2
2021/12/27 00:00:41;;;;;;;4.70;2.28;;;;;;;5.16;100.00;97694.75;4992234;28;20054;-70
2021/12/27 00:03:07;;;;;;;2.83;1.80;;;;;;;5.13;100.00;97689.66;4992217;28;20034;-73
2021/12/27 00:05:32;;;;;;;3.05;2.03;;;;;;;5.14;100.00;97693.94;4992056;28;20056;-73
2021/12/27 00:07:58;;;;;;;5.57;3.15;;;;;;;5.16;100.00;97694.75;4991955;28;20011;-73
2021/12/27 00:10:25;;;;;;;1.45;1.13;;;;;;;5.27;100.00;97679.19;4991947;28;20026;-70
2021/12/27 00:12:51;;;;;;;2.50;2.30;;;;;;;5.18;100.00;97680.19;4992234;28;20030;-70
2021/12/27 00:15:17;;;;;;;3.92;2.17;;;;;;;5.36;100.00;97677.31;4992124;28;20018;-70
2021/12/27 00:17:43;;;;;;;3.55;2.30;;;;;;;5.24;100.00;97677.53;4991948;28;20034;-76
2021/12/27 00:20:11;;;;;;;2.67;1.67;;;;;;;5.22;100.00;97684.41;4992036;28;20065;-75
2021/12/27 00:22:38;;;;;;;1.10;1.05;;;;;;;5.24;100.00;97686.94;4992113;28;20077;-75
2021/12/27 00:25:07;;;;;;;3.42;2.10;;;;;;;5.19;100.00;97687.00;4993741;28;20040;-73
2021/12/27 00:27:33;;;;;;;3.40;2.35;;;;;;;5.18;100.00;97687.03;4995387;28;20030;-73
2021/12/27 00:29:58;;;;;;;3.17;1.77;;;;;;;5.21;100.00;97690.38;4995514;28;20034;-73
2021/12/27 00:32:24;;;;;;;2.25;2.05;;;;;;;5.22;100.00;97696.38;4995397;28;20395;-74
2021/12/27 00:34:49;;;;;;;2.15;2.00;;;;;;;5.25;100.00;97688.63;4995261;28;20026;-75
2021/12/27 00:37:14;;;;;;;1.58;1.48;;;;;;;5.26;100.00;97692.91;4994943;28;20080;-75
2021/12/27 00:39:40;;;;;;;4.65;3.03;;;;;;;5.31;100.00;97694.53;4995197;28;20088;-75
2021/12/27 00:42:05;;;;;;;1.45;1.42;;;;;;;5.25;100.00;97694.63;4995253;28;20053;-75
2021/12/27 00:44:31;;;;;;;1.77;1.67;;;;;;;5.22;100.00;97689.53;4995249;28;20081;-75
2021/12/27 00:46:57;;;;;;;3.05;2.20;;;;;;;5.18;100.00;97681.91;4995021;28;20030;-75
2021/12/27 00:49:22;;;;;;;2.47;1.40;;;;;;;5.15;100.00;97678.50;4995211;28;20034;-76
2021/12/27 00:51:48;;;;;;;1.92;1.83;;;;;;;5.13;100.00;97674.28;4995113;28;20105;-75
2021/12/27 00:54:14;;;;;;;0.90;0.90;;;;;;;5.11;100.00;97678.56;4994813;28;20057;-76
2021/12/27 00:56:39;;;;;;;5.88;1.23;;;;;;;5.04;100.00;97675.25;4994545;28;20023;-76
2021/12/27 00:59:05;;;;;;;2.40;2.05;;;;;;;5.01;100.00;97682.97;4994966;28;20104;-76
2021/12/27 05:16:26;;;;;;;0.83;0.83;;;;;;;4.75;100.00;97606.34;5479210;23;20044;-75
2021/12/27 05:18:51;;;;;;;1.25;1.25;;;;;;;4.77;100.00;97609.72;4936734;29;20028;-75
2021/12/27 05:21:17;;;;;;;3.55;1.88;;;;;;;4.73;100.00;97602.09;4936738;29;20110;-75
2021/12/27 05:23:42;;;;;;;1.70;1.60;;;;;;;4.76;100.00;97608.03;4937136;29;20032;-75
2021/12/27 05:26:08;;;;;;;1.38;1.35;;;;;;;4.76;100.00;97592.66;4936401;29;20031;-75
2021/12/27 05:28:33;;;;;;;2.42;2.30;;;;;;;4.77;100.00;97594.34;4936932;29;20023;-74
2021/12/27 05:30:58;;;;;;;1.80;1.70;;;;;;;4.75;100.00;97590.94;4921027;29;20024;-74
2021/12/27 05:33:24;;;;;;;1.95;1.70;;;;;;;4.77;100.00;97589.19;4917543;29;20119;-75
2021/12/27 05:35:49;;;;;;;2.13;2.03;;;;;;;4.77;100.00;97581.50;4919604;29;20489;-74
2021/12/27 05:38:15;;;;;;;1.60;1.52;;;;;;;4.79;100.00;97584.91;4934697;29;20036;-74
2021/12/27 05:40:40;;;;;;;1.30;1.30;;;;;;;4.81;100.00;97587.44;4917398;29;20028;-74
2021/12/27 05:43:07;;;;;;;3.33;2.33;;;;;;;4.79;100.00;97592.59;4917531;29;20028;-74
2021/12/27 05:45:35;;;;;;;2.78;1.85;;;;;;;4.80;100.00;97584.03;4916030;29;20394;-74
2021/12/27 05:48:01;;;;;;;1.92;1.30;;;;;;;4.80;100.00;97586.59;4917099;29;20020;-74
2021/12/27 05:50:26;;;;;;;1.95;1.48;;;;;;;4.78;100.00;97595.19;4917178;29;20028;-74
2021/12/27 05:52:52;;;;;;;1.70;1.60;;;;;;;4.80;100.00;97591.75;4917235;29;20036;-74
2021/12/27 05:55:18;;;;;;;2.20;2.05;;;;;;;4.79;100.00;97586.63;4916888;29;20031;-74
2021/12/27 05:57:43;;;;;;;1.75;1.70;;;;;;;4.79;100.00;97595.19;4927833;29;20028;-74
2021/12/27 06:00:12;;;;;;;2.28;2.13;;;;;;;4.81;100.00;97588.28;4928003;29;20449;-74
2021/12/27 06:02:37;;;;;;;1.95;1.63;;;;;;;4.80;100.00;97591.75;4936046;29;20115;-74
2021/12/27 06:05:03;;;;;;;4.45;1.65;;;;;;;4.82;100.00;97582.28;4935821;29;20123;-74
2021/12/27 06:07:30;;;;;;;1.38;1.30;;;;;;;4.82;100.00;97577.16;4935539;29;20098;-74
2021/12/27 06:09:56;;;;;;;0.77;0.77;;;;;;;4.80;100.00;97573.78;4920620;29;20031;-74
2021/12/27 06:12:21;;;;;;;2.05;1.88;;;;;;;4.81;100.00;97569.47;4916866;29;20466;-74
2021/12/27 06:14:46;;;;;;;1.20;1.05;;;;;;;4.81;100.00;97565.19;4916733;29;20481;-74
2021/12/27 06:17:12;;;;;;;2.83;2.60;;;;;;;4.82;100.00;97560.91;4916379;29;20071;-74
2021/12/27 06:19:37;;;;;;;1.00;1.00;;;;;;;4.77;100.00;97562.69;4916716;29;20055;-74
2021/12/27 06:22:03;;;;;;;1.98;1.88;;;;;;;4.80;100.00;97562.66;4916093;29;20485;-74
2021/12/27 06:24:28;;;;;;;4.25;2.00;;;;;;;4.71;100.00;97566.19;4915362;29;20035;-74
2021/12/27 06:26:54;;;;;;;2.15;2.05;;;;;;;4.76;100.00;97569.56;4920857;29;20027;-74
2021/12/27 06:29:19;;;;;;;3.03;2.75;;;;;;;4.76;100.00;97566.97;4927521;29;20046;-74
2021/12/27 06:31:45;;;;;;;2.90;2.53;;;;;;;4.76;100.00;97561.00;4935403;29;20016;-74
2021/12/27 06:34:10;;;;;;;1.77;1.67;;;;;;;4.72;100.00;97564.47;4935501;29;20023;-73
2021/12/27 06:36:35;;;;;;;1.92;1.83;;;;;;;4.69;100.00;97560.25;4935071;29;20453;-73
2021/12/27 06:39:04;;;;;;;0.95;0.95;;;;;;;4.65;100.00;97558.59;4935532;29;20458;-73
2021/12/27 06:41:29;;;;;;;4.88;2.10;;;;;;;4.66;100.00;97560.28;4935219;29;20031;-73
2021/12/27 06:43:55;;;;;;;1.98;1.88;;;;;;;4.64;100.00;97556.88;4935298;29;20023;-73
2021/12/27 06:46:21;;;;;;;3.28;1.67;;;;;;;4.58;100.00;97570.66;4934938;29;20039;-73
2021/12/27 06:48:46;;;;;;;3.80;2.00;;;;;;;4.55;100.00;97562.16;4935212;29;20024;-73
2021/12/27 06:51:11;;;;;;;4.07;3.45;;;;;;;4.50;100.00;97553.69;4928581;29;20386;-73
2021/12/27 06:53:37;;;;;;;2.25;1.98;;;;;;;4.47;100.00;97553.72;4935138;29;20111;-74
2021/12/27 06:56:04;;;;;;;2.38;1.80;;;;;;;4.43;100.00;97557.19;4934815;29;20023;-74
2021/12/27 06:58:30;;;;;;;1.25;1.25;;;;;;;4.36;100.00;97552.16;4925458;29;20028;-74
2021/12/27 07:00:55;;;;;;;2.72;2.13;;;;;;;4.31;100.00;97543.69;4931225;29;20091;-73
2021/12/27 07:03:21;;;;;;;2.35;2.25;;;;;;;4.31;100.00;97543.69;4934856;29;20028;-73
2021/12/27 07:05:48;;;;;;;1.38;1.35;;;;;;;4.25;100.00;97543.72;4934929;29;20103;-73
2021/12/27 07:08:14;;;;;;;4.70;1.98;;;;;;;4.23;100.00;97547.19;4926977;29;20048;-73
2021/12/27 07:10:40;;;;;;;1.95;1.85;;;;;;;4.20;100.00;97560.03;4935001;29;20074;-73
2021/12/27 07:13:06;;;;;;;3.13;2.78;;;;;;;4.17;100.00;97550.69;4934825;29;20032;-73
2021/12/27 07:15:31;;;;;;;2.42;2.33;;;;;;;4.21;100.00;97546.38;4934664;29;20019;-74
2021/12/27 07:17:57;;;;;;;1.50;1.40;;;;;;;4.20;100.00;97553.19;4934555;29;20032;-73
2021/12/27 07:20:22;;;;;;;3.03;2.60;;;;;;;4.15;100.00;97554.97;4934662;29;20032;-74
2021/12/27 07:22:48;;;;;;;1.95;1.63;;;;;;;4.14;100.00;97553.28;4934515;29;20031;-75
2021/12/27 07:25:14;;;;;;;4.05;2.45;;;;;;;4.07;100.00;97564.50;4933258;29;20079;-75
2021/12/27 07:27:39;;;;;;;2.03;1.10;;;;;;;4.02;100.00;97566.25;4928831;29;20496;-74
2021/12/27 07:30:08;;;;;;;2.75;2.55;;;;;;;4.02;100.00;97566.25;4926852;29;20308;-74
2021/12/27 07:32:34;;;;;;;1.87;1.60;;;;;;;3.96;100.00;97567.16;4934576;29;20027;-78
2021/12/27 07:34:59;;;;;;;1.58;1.48;;;;;;;3.93;100.00;97566.34;4938566;29;20514;-78
2021/12/27 07:37:25;;;;;;;2.17;2.08;;;;;;;3.91;100.00;97568.06;4931012;29;20451;-78
2021/12/27 07:39:50;;;;;;;2.53;2.17;;;;;;;3.96;100.00;97571.44;4933754;29;20032;-77
2021/12/27 07:42:15;;;;;;;1.60;1.50;;;;;;;3.93;100.00;97576.59;4938696;29;20032;-77
2021/12/27 07:44:41;;;;;;;1.23;1.17;;;;;;;3.85;100.00;97569.84;4938509;29;20019;-75
2021/12/27 07:47:06;;;;;;;2.03;1.90;;;;;;;3.83;100.00;97566.47;4938540;29;20038;-74
2021/12/27 07:49:33;;;;;;;2.17;1.80;;;;;;;3.82;100.00;97562.22;4938388;29;20070;-76
2021/12/27 07:51:58;;;;;;;3.42;2.40;;;;;;;3.84;100.00;97570.72;4938452;29;20545;-76
2021/12/27 07:54:24;;;;;;;1.45;1.45;;;;;;;3.81;100.00;97565.59;4937171;29;20186;-76
2021/12/27 07:56:49;;;;;;;2.45;2.25;;;;;;;3.81;100.00;97565.59;4933985;29;20249;-76
2021/12/27 07:59:15;;;;;;;1.48;1.38;;;;;;;3.79;100.00;97566.50;4928671;29;20115;-75
2021/12/27 08:01:41;;;;;;;2.15;1.52;;;;;;;3.79;100.00;97559.66;4938242;29;20050;-74
2021/12/27 08:04:06;;;;;;;2.05;1.67;;;;;;;3.84;100.00;97557.91;4938116;29;20028;-75
2021/12/27 08:06:32;;;;;;;1.98;1.27;;;;;;;3.90;100.00;97551.00;4933838;29;20492;-75
2021/12/27 08:08:58;;;;;;;1.20;1.10;;;;;;;3.85;100.00;97551.06;4930029;29;20020;-76
2021/12/27 08:11:25;;;;;;;3.58;2.72;;;;;;;3.86;100.00;97556.16;4938162;29;20111;-78
2021/12/27 08:13:51;;;;;;;1.00;1.00;;;;;;;3.93;100.00;97551.84;4937995;29;20147;-78
2021/12/27 08:16:17;;;;;;;1.85;1.45;;;;;;;4.00;100.00;97550.03;4937485;29;20440;-78
2021/12/27 08:18:42;;;;;;;3.33;2.88;;;;;;;4.07;100.00;97551.69;4938268;29;20031;-78
2021/12/27 08:21:08;;;;;;;2.22;2.13;;;;;;;4.00;100.00;97547.47;4938751;29;20027;-76
2021/12/27 08:23:33;;;;;;;2.25;1.73;;;;;;;3.97;100.00;97557.78;4937928;29;20032;-76
2021/12/27 08:25:59;;;;;;;1.23;1.23;;;;;;;4.01;100.00;97551.72;4937641;29;20102;-76
2021/12/27 08:28:24;;;;;;;1.10;1.10;;;;;;;4.22;100.00;97548.91;4934756;29;20494;-76
2021/12/27 08:30:50;;;;;;;2.13;2.00;;;;;;;4.16;100.00;97549.00;4919012;29;20529;-76
2021/12/27 08:33:15;;;;;;;1.70;1.60;;;;;;;4.30;100.00;97547.13;4918698;29;20083;-75
2021/12/27 08:35:40;;;;;;;1.60;1.48;;;;;;;4.50;100.00;97548.56;4918335;29;20171;-75
2021/12/27 08:38:06;;;;;;;1.40;1.40;;;;;;;4.46;100.00;97549.47;4926730;29;20115;-75
2021/12/27 08:40:32;;;;;;;1.38;1.30;;;;;;;4.67;100.00;97541.47;4937450;29;20037;-75
2021/12/27 08:42:57;;;;;;;2.65;2.33;;;;;;;4.84;100.00;97548.94;4937482;29;20032;-74
2021/12/27 08:45:23;;;;;;;1.25;1.25;;;;;;;4.70;100.00;97551.69;4936662;29;20024;-76
2021/12/27 08:47:48;;;;;;;1.55;1.45;;;;;;;4.90;100.00;97552.22;4936017;29;20110;-76
2021/12/27 08:50:17;;;;;;;6.65;1.58;;;;;;;5.05;100.00;97555.44;4937351;29;20066;-75
2021/12/27 08:52:47;;;;;;;1.33;1.30;;;;;;;5.15;100.00;97559.53;4937163;29;20038;-75
2021/12/27 08:55:12;;;;;;;;;;;;;;;5.68;100.00;97555.22;4937601;29;20028;-76
2021/12/27 08:57:39;;;;;;;1.30;1.25;;;;;;;6.02;100.00;97549.47;4931240;29;19969;-76
2021/12/27 09:00:07;;;;;;;1.63;1.48;;;;;;;6.34;100.00;97544.53;4929222;29;20023;-76
2021/12/27 09:02:32;;;;;;;1.63;1.52;;;;;;;7.12;100.00;97536.75;4936963;29;20036;-76
2021/12/27 09:04:58;;;;;;;3.35;3.08;;;;;;;7.21;98.30;97531.38;4937100;29;20066;-76
2021/12/27 09:07:23;;;;;;;2.85;2.63;;;;;;;7.52;95.13;97534.00;4925060;29;20022;-76
2021/12/27 09:09:49;;;;;;;1.85;1.70;;;;;;;8.08;91.99;97530.81;4937034;29;20366;-76
2021/12/27 09:12:14;;;;;;;2.05;1.83;;;;;;;8.73;86.18;97535.78;4936942;29;20028;-76
2021/12/27 09:14:40;;;;;;;3.03;2.05;;;;;;;9.78;81.33;97528.91;4936992;29;20536;-76
2021/12/27 09:17:05;;;;;;;1.40;1.38;;;;;;;11.56;74.00;97522.94;4936463;29;20035;-76
2021/12/27 09:19:30;;;;;;;1.83;1.73;;;;;;;12.00;69.91;97515.84;4936844;29;20040;-76
2021/12/27 09:21:56;;;;;;;2.13;1.85;;;;;;;10.79;73.07;97530.38;4936836;29;20055;-76
2021/12/27 09:24:22;;;;;;;2.53;1.65;;;;;;;9.69;78.54;97534.38;4936783;29;20568;-76
2021/12/27 09:26:47;;;;;;;1.48;1.38;;;;;;;9.10;80.88;97532.06;4932697;29;20398;-76
2021/12/27 09:29:12;;;;;;;3.22;1.50;;;;;;;8.83;83.28;97536.34;4926913;29;20111;-76
2021/12/27 09:31:38;;;;;;;3.08;1.52;;;;;;;8.73;85.25;97531.47;4936453;29;20028;-76
2021/12/27 09:34:03;;;;;;;2.40;1.67;;;;;;;9.79;79.13;97530.59;4936504;29;20034;-76
2021/12/27 09:36:29;;;;;;;1.80;1.40;;;;;;;9.51;80.12;97525.50;4932104;29;20038;-76
2021/12/27 09:38:55;;;;;;;2.67;1.75;;;;;;;9.56;79.25;97535.69;4928495;29;20020;-78
2021/12/27 09:41:20;;;;;;;2.55;2.00;;;;;;;9.14;81.78;97525.91;4936408;29;20086;-79
2021/12/27 09:43:46;;;;;;;4.07;1.85;;;;;;;8.92;83.31;97536.91;4935005;29;20020;-78
2021/12/27 09:46:13;;;;;;;2.83;1.95;;;;;;;8.40;85.83;97540.22;4936100;29;20440;-79
2021/12/27 09:48:39;;;;;;;1.65;1.55;;;;;;;9.09;83.42;97535.53;4936132;29;20441;-78
2021/12/27 09:51:05;;;;;;;2.33;2.13;;;;;;;9.58;81.69;97532.19;4936167;29;20477;-78
2021/12/27 09:53:31;;;;;;;4.10;1.95;;;;;;;9.57;81.47;97529.63;4936294;29;20035;-75
2021/12/27 09:55:56;;;;;;;4.78;2.30;;;;;;;9.60;80.44;97525.19;4935819;29;20069;-74
2021/12/27 09:58:21;;;;;;;5.10;2.75;;;;;;;8.95;82.91;97525.66;4926650;29;20047;-74
2021/12/27 10:00:47;;;;;;;1.13;1.13;;;;;;;8.42;85.79;97516.06;4934733;29;20035;-74
2021/12/27 10:03:12;;;;;;;1.20;1.20;;;;;;;9.29;82.31;97517.66;4935868;29;20051;-74
2021/12/27 10:05:38;;;;;;;2.30;1.42;;;;;;;10.76;78.26;97494.22;4933615;29;20020;-74
2021/12/27 10:08:04;;;;;;;1.88;1.35;;;;;;;12.63;69.13;97488.78;4924517;29;20177;-75
2021/12/27 10:10:34;;;;;;;1.88;1.77;;;;;;;14.73;61.89;97484.13;4935824;29;20043;-75
2021/12/27 10:13:01;;;;;;;1.80;1.70;;;;;;;14.02;63.32;97493.13;4935875;29;20024;-75
2021/12/27 10:15:39;;;;;;;2.97;2.15;;;;;;;14.91;59.36;97477.91;4935401;29;20385;-75
2021/12/27 10:18:13;;;;;;;1.50;1.40;;;;;;;14.67;60.88;97479.25;4935577;29;20389;-75
2021/12/27 10:20:40;;;;;;;2.33;2.08;;;;;;;15.85;57.98;97471.53;4935809;29;20028;-75
2021/12/27 10:23:07;;;;;;;1.85;1.75;;;;;;;18.15;51.76;97473.22;4935969;29;20024;-75
2021/12/27 10:25:32;;;;;;;2.75;1.98;;;;;;;17.40;51.92;97469.59;4935350;29;20046;-75
2021/12/27 10:28:00;;;;;;;1.52;1.42;;;;;;;16.50;53.48;97473.66;4935593;29;20087;-76
2021/12/27 10:30:28;;;;;;;1.20;1.10;;;;;;;16.60;53.34;97463.44;4935354;29;20038;-76
2021/12/27 10:33:15;;;;;;;1.98;1.30;;;;;;;17.96;49.49;97462.34;4935471;29;20437;-76
2021/12/27 10:35:52;;;;;;;1.85;1.75;;;;;;;18.22;49.47;97453.47;4935174;29;20458;-76
2021/12/27 10:38:20;;;;;;;2.13;1.65;;;;;;;19.58;47.01;97445.34;4925507;29;20068;-76
2021/12/27 10:40:50;;;;;;;1.63;1.52;;;;;;;17.95;49.20;97456.25;4916375;29;20031;-76
2021/12/27 10:43:31;;;;;;;1.77;1.17;;;;;;;19.39;47.75;97437.16;4916707;29;20024;-76
2021/12/27 10:46:01;;;;;;;2.33;1.40;;;;;;;18.57;49.07;97434.41;4916454;29;20580;-76
2021/12/27 10:48:34;;;;;;;4.18;1.77;;;;;;;20.45;45.47;97429.84;4916303;29;20465;-78
2021/12/27 10:51:00;;;;;;;1.45;1.35;;;;;;;20.33;45.17;97428.19;4916275;29;20454;-76
2021/12/27 10:53:25;;;;;;;1.85;1.30;;;;;;;20.43;44.12;97421.25;4916351;29;20056;-76
2021/12/27 10:55:51;;;;;;;1.38;1.27;;;;;;;17.64;48.96;97430.44;4915995;29;20526;-76
2021/12/27 10:58:29;;;;;;;0.85;0.85;;;;;;;16.24;54.49;97427.38;4912024;29;20032;-76
2021/12/27 11:00:59;;;;;;;2.17;1.55;;;;;;;14.10;61.01;97435.41;4935208;29;20540;-76
2021/12/27 11:03:51;;;;;;;1.70;1.10;;;;;;;11.57;69.84;97441.59;4935133;29;20374;-76
2021/12/27 11:06:20;;;;;;;3.88;1.48;;;;;;;10.82;75.18;97444.75;4933123;29;20047;-76
2021/12/27 11:08:46;;;;;;;1.75;1.33;;;;;;;10.28;79.04;97446.00;4926741;29;20026;-76
2021/12/27 11:11:12;;;;;;;1.98;1.63;;;;;;;10.34;80.03;97444.94;4935105;29;20032;-75
2021/12/27 11:13:39;;;;;;;1.58;1.20;;;;;;;10.22;81.70;97436.72;4934866;29;20059;-75
2021/12/27 11:16:05;;;;;;;1.23;1.13;;;;;;;10.07;82.54;97436.44;4934620;29;20098;-74
2021/12/27 11:18:32;;;;;;;1.45;1.35;;;;;;;11.19;78.16;97430.28;4953373;28;20408;-75
2021/12/27 11:21:14;;;;;;;1.73;1.58;;;;;;;13.90;68.02;97415.66;4954083;28;20479;-75
2021/12/27 11:23:41;;;;;;;1.73;1.58;;;;;;;16.17;59.30;97412.09;4953917;28;20035;-75
2021/12/27 11:26:15;;;;;;;2.25;1.35;;;;;;;16.41;55.31;97411.47;4953686;28;20058;-75
2021/12/27 11:28:44;;;;;;;1.80;1.48;;;;;;;18.96;50.13;97406.25;4976385;23;20041;-73
2021/12/27 11:31:28;;;;;;;2.78;1.30;;;;;;;18.82;48.74;97409.88;4932345;29;20067;-74
2021/12/27 11:34:03;;;;;;;2.30;1.38;;;;;;;18.83;48.52;97401.06;4934687;29;20031;-74
2021/12/27 11:36:34;;;;;;;4.10;1.30;;;;;;;17.83;51.27;97403.84;4930326;29;20020;-73
2021/12/27 11:39:16;;;;;;;1.17;0.77;;;;;;;17.05;52.90;97409.94;4934365;29;20122;-73
2021/12/27 11:41:41;;;;;;;1.30;1.20;;;;;;;14.98;57.20;97411.41;4934707;29;20023;-73
2021/12/27 11:44:08;;;;;;;1.55;1.15;;;;;;;14.57;60.51;97408.56;4934625;29;20499;-73
2021/12/27 11:46:57;;;;;;;1.30;1.02;;;;;;;12.45;65.45;97415.97;4934482;29;20042;-73
2021/12/27 11:50:02;;;;;;;0.90;0.80;;;;;;;11.74;70.28;97407.97;4934573;29;20043;-71
2021/12/27 11:52:32;;;;;;;0.82;0.82;;;;;;;11.55;72.31;97402.75;4926096;29;20405;-71
2021/12/27 11:55:14;;;;;;;0.77;0.70;;;;;;;10.86;74.23;97402.25;4934548;29;20111;-71
2021/12/27 11:57:42;;;;;;;1.15;1.05;;;;;;;10.78;76.74;97399.13;4927263;29;20032;-71
2021/12/27 12:00:16;;;;;;;1.05;1.05;;;;;;;10.86;76.88;97394.47;4934281;29;20024;-71
2021/12/27 12:02:43;;;;;;;1.75;1.30;;;;;;;10.57;77.82;97400.00;4934493;29;20103;-71
2021/12/27 12:05:09;;;;;;;0.95;0.95;;;;;;;10.69;77.61;97389.16;4934461;29;20039;-71
2021/12/27 12:07:34;;;;;;;1.13;1.08;;;;;;;10.46;79.12;97385.75;4930006;29;20019;-71
2021/12/27 12:10:02;;;;;;;2.30;0.90;;;;;;;10.46;79.51;97387.50;4934320;29;20031;-71
2021/12/27 12:12:30;;;;;;;1.05;0.95;;;;;;;10.86;78.67;97386.72;4934342;29;20474;-71
2021/12/27 12:14:57;;;;;;;1.55;0.88;;;;;;;11.24;76.95;97386.84;4934331;29;20036;-71
2021/12/27 12:17:41;;;;;;;1.45;1.35;;;;;;;10.88;77.78;97373.69;4934343;29;20043;-71
2021/12/27 12:20:23;;;;;;;3.80;0.90;;;;;;;10.71;78.21;97366.63;4934953;29;20035;-71
2021/12/27 12:22:58;;;;;;;3.22;2.00;;;;;;;10.68;79.41;97357.22;4937924;29;20024;-71
2021/12/27 12:25:24;;;;;;;1.33;1.23;;;;;;;10.63;80.08;97353.13;4938011;29;20376;-71
2021/12/27 12:27:58;;;;;;;1.30;1.20;;;;;;;10.78;79.25;97352.50;4931694;29;20016;-71
2021/12/27 12:30:27;;;;;;;0.95;0.95;;;;;;;10.62;79.86;97346.28;4937430;29;20035;-71
2021/12/27 12:33:01;;;;;;;0.73;0.73;;;;;;;10.40;78.70;97341.16;4937792;29;20031;-71
2021/12/27 12:35:49;;;;;;;1.67;1.10;;;;;;;10.42;80.17;97340.16;4937681;29;20043;-71
2021/12/27 12:38:38;;;;;;;0.88;0.88;;;;;;;10.26;79.39;97333.94;4933796;29;20058;-71
2021/12/27 12:41:09;;;;;;;1.02;0.98;;;;;;;10.31;81.26;97339.75;4937419;29;20060;-71
2021/12/27 12:43:40;;;;;;;1.17;1.15;;;;;;;10.20;81.84;97345.34;4674277;28;20626;-71
2021/12/27 12:46:36;;;;;;;2.80;0.77;;;;;;;10.34;81.53;97342.22;4936834;29;20051;-71
2021/12/27 12:49:10;;;;;;;1.65;1.05;;;;;;;10.25;82.25;97345.16;4936539;29;20055;-71
2021/12/27 12:51:45;;;;;;;0.88;0.88;;;;;;;10.09;82.81;97349.25;4937372;29;20390;-71
2021/12/27 12:54:21;;;;;;;2.95;1.45;;;;;;;10.12;83.34;97346.53;4937287;29;20110;-71
2021/12/27 12:56:47;;;;;;;3.15;1.02;;;;;;;10.12;84.01;97362.06;4933310;29;20039;-71
2021/12/27 12:59:21;;;;;;;3.20;2.13;;;;;;;9.98;82.19;97360.84;4934987;29;20039;-71
2021/12/27 13:02:00;;;;;;;2.42;1.38;;;;;;;9.92;82.14;97358.50;4937132;29;20034;-71
2021/12/27 13:04:59;;;;;;;2.47;1.90;;;;;;;9.83;82.09;97364.03;4937266;29;20042;-71
2021/12/27 13:07:39;;;;;;;2.80;1.93;;;;;;;9.91;82.38;97364.59;4934194;29;20031;-71
2021/12/27 13:10:27;;;;;;;1.67;1.00;;;;;;;9.95;82.08;97370.47;4936993;29;20082;-71
2021/12/27 13:12:58;;;;;;;1.02;0.93;;;;;;;9.69;82.33;97374.03;4936870;29;20031;-71
2021/12/27 13:15:27;;;;;;;1.75;1.05;;;;;;;9.68;83.67;97372.38;4937022;29;20051;-71
2021/12/27 13:18:08;;;;;;;1.00;1.00;;;;;;;9.65;82.48;97377.63;4936779;29;20036;-71
2021/12/27 13:20:36;;;;;;;2.55;1.88;;;;;;;9.46;83.32;97378.31;4935635;29;20090;-71
2021/12/27 13:23:04;;;;;;;0.73;0.73;;;;;;;9.65;82.51;97382.81;4936815;29;20031;-71
2021/12/27 13:25:29;;;;;;;1.38;0.90;;;;;;;9.62;83.11;97385.50;4936699;29;20035;-71
2021/12/27 13:28:19;;;;;;;1.63;1.35;;;;;;;9.42;85.23;97391.38;4930908;29;20107;-71
2021/12/27 13:30:47;;;;;;;1.38;1.05;;;;;;;9.46;86.33;97388.66;4878098;28;20107;-71
2021/12/27 13:33:14;;;;;;;0.57;0.57;;;;;;;9.39;86.92;97384.59;4935953;29;20476;-71
2021/12/27 13:35:40;;;;;;;0.90;0.90;;;;;;;9.38;85.81;97385.50;4935503;29;20079;-71
2021/12/27 13:38:16;;;;;;;0.90;0.90;;;;;;;9.23;87.34;97386.91;4925134;29;20024;-71
2021/12/27 13:40:47;;;;;;;1.00;1.00;;;;;;;9.17;86.89;97381.06;4935288;29;20035;-71
2021/12/27 13:43:13;;;;;;;1.50;1.40;;;;;;;8.98;87.42;97371.38;4936434;29;20126;-74
2021/12/27 13:45:41;;;;;;;2.15;1.15;;;;;;;8.96;87.56;97368.00;4936333;29;20527;-71
2021/12/27 13:48:07;;;;;;;1.40;1.00;;;;;;;8.80;88.52;97366.84;4936229;29;20020;-71
2021/12/27 13:50:35;;;;;;;0.80;0.80;;;;;;;8.82;89.61;97353.88;4936268;29;20024;-71
2021/12/27 13:53:09;;;;;;;0.88;0.88;;;;;;;8.70;91.03;97357.69;4936299;29;20039;-71
2021/12/27 13:55:34;;;;;;;1.08;1.08;;;;;;;8.64;90.36;97361.34;4936124;29;20078;-70
2021/12/27 13:58:17;;;;;;;1.08;1.08;;;;;;;8.63;91.06;97364.81;4929738;29;20544;-73
2021/12/27 14:00:43;;;;;;;2.80;2.55;;;;;;;8.60;90.37;97364.06;4923543;29;20066;-72
2021/12/27 14:03:30;;;;;;;1.35;1.25;;;;;;;8.59;89.81;97357.22;4935812;29;20062;-75
2021/12/27 14:05:57;;;;;;;1.98;1.83;;;;;;;8.59;90.39;97363.22;4932573;29;20031;-73
2021/12/27 14:08:25;;;;;;;2.03;1.17;;;;;;;8.60;89.47;97369.22;4926901;29;20024;-73
2021/12/27 14:11:07;;;;;;;1.55;1.23;;;;;;;8.70;89.87;97368.03;4935849;29;20034;-73
2021/12/27 14:14:01;;;;;;;1.88;0.98;;;;;;;8.68;89.84;97368.09;4935929;29;20436;-71
2021/12/27 14:16:32;;;;;;;8.80;1.55;;;;;;;8.64;88.76;97370.81;4935789;29;20031;-73
2021/12/27 14:19:11;;;;;;;1.00;1.00;;;;;;;8.68;89.78;97367.25;4935752;29;20379;-73
2021/12/27 14:22:16;;;;;;;0.63;0.63;;;;;;;8.67;89.91;97365.56;4935701;29;20024;-71
2021/12/27 14:24:58;;;;;;;1.08;1.08;;;;;;;8.55;89.31;97356.47;4895419;29;20528;-71
2021/12/27 14:27:31;;;;;;;1.83;0.93;;;;;;;8.45;89.86;97349.94;4926525;29;20040;-74
2021/12/27 14:30:21;;;;;;;1.80;0.88;;;;;;;8.47;90.20;97356.75;4927253;29;20032;-73
2021/12/27 14:32:59;;;;;;;;;;;;;;;8.39;91.36;97366.47;4936150;29;20401;-74
2021/12/27 14:35:27;;;;;;;2.00;1.38;;;;;;;8.39;90.74;97361.31;4935462;29;19938;-74
2021/12/27 14:37:56;;;;;;;1.75;1.58;;;;;;;8.38;90.40;97369.94;4924174;29;20024;-74
2021/12/27 14:40:22;;;;;;;2.70;1.83;;;;;;;8.40;90.86;97365.56;4934031;29;20381;-80
2021/12/27 14:42:49;;;;;;;1.70;1.60;;;;;;;8.33;91.68;97376.97;4934995;29;20107;-74
2021/12/27 14:45:15;;;;;;;2.45;2.25;;;;;;;8.36;92.97;97376.88;4935517;29;20027;-74
2021/12/27 14:47:41;;;;;;;1.65;1.10;;;;;;;8.30;92.73;97371.88;4935108;29;20016;-74
2021/12/27 14:50:06;;;;;;;1.45;1.40;;;;;;;8.26;92.87;97375.44;4935216;29;20034;-74
2021/12/27 14:52:32;;;;;;;1.23;1.15;;;;;;;8.23;93.09;97367.81;4935129;29;20138;-74
2021/12/27 14:54:58;;;;;;;6.63;2.92;;;;;;;8.19;93.31;97374.81;4935163;29;20027;-74
2021/12/27 14:57:23;;;;;;;1.10;1.10;;;;;;;8.20;93.22;97375.66;4928668;29;20032;-74
2021/12/27 14:59:49;;;;;;;1.55;1.48;;;;;;;8.17;94.03;97375.72;4927115;29;20028;-74
2021/12/27 15:02:15;;;;;;;1.27;1.27;;;;;;;8.11;95.95;97371.59;4935013;29;20114;-74
2021/12/27 15:04:40;;;;;;;1.08;1.08;;;;;;;7.97;96.18;97372.03;4935031;29;20023;-74
2021/12/27 15:07:06;;;;;;;2.25;1.92;;;;;;;7.95;95.22;97365.25;4930000;29;20024;-74
2021/12/27 15:09:32;;;;;;;3.75;2.17;;;;;;;7.95;93.54;97366.09;4927201;29;20437;-76
2021/12/27 15:11:58;;;;;;;2.92;2.33;;;;;;;7.97;94.12;97368.59;4934879;29;20116;-76
2021/12/27 15:14:24;;;;;;;2.28;2.00;;;;;;;8.03;93.71;97370.19;4934963;29;20451;-76
2021/12/27 15:16:50;;;;;;;3.65;2.22;;;;;;;7.97;93.97;97359.13;4934804;29;20103;-77
2021/12/27 15:19:15;;;;;;;2.05;1.90;;;;;;;7.87;94.99;97356.88;4934837;29;20032;-76
2021/12/27 15:21:41;;;;;;;2.60;2.40;;;;;;;7.84;95.88;97360.41;4949569;29;20555;-75
2021/12/27 15:24:08;;;;;;;4.60;2.65;;;;;;;7.87;95.71;97362.88;4934734;29;20038;-78
2021/12/27 15:26:34;;;;;;;2.00;1.88;;;;;;;7.76;97.14;97357.22;4932878;29;20050;-77
2021/12/27 15:28:59;;;;;;;4.03;1.92;;;;;;;7.76;97.62;97354.63;4923320;29;20024;-77
2021/12/27 15:31:25;;;;;;;3.03;1.92;;;;;;;7.75;97.92;97352.09;4934028;29;20370;-78
2021/12/27 15:33:50;;;;;;;1.95;1.85;;;;;;;7.66;98.90;97351.47;4934748;29;20508;-78
2021/12/27 15:36:16;;;;;;;2.05;1.17;;;;;;;7.65;99.33;97356.69;4929856;29;20083;-78
2021/12/27 15:38:43;;;;;;;3.17;1.75;;;;;;;7.59;99.21;97346.53;4926424;29;20024;-78
2021/12/27 15:41:09;;;;;;;2.53;2.38;;;;;;;7.57;99.67;97349.16;4934691;29;20617;-78
2021/12/27 15:43:34;;;;;;;1.48;1.45;;;;;;;7.63;98.99;97358.44;4934450;29;20020;-77
2021/12/27 15:46:00;;;;;;;4.05;2.20;;;;;;;7.53;99.21;97362.19;4934116;29;20075;-78
2021/12/27 15:48:25;;;;;;;3.33;3.03;;;;;;;7.44;99.24;97358.97;4934444;29;20051;-78
2021/12/27 15:50:51;;;;;;;6.45;2.83;;;;;;;7.38;100.00;97368.63;4934612;29;20028;-78
2021/12/27 15:53:16;;;;;;;4.32;1.60;;;;;;;7.35;100.00;97369.56;4934447;29;20040;-78
2021/12/27 15:55:42;;;;;;;1.90;1.73;;;;;;;7.32;100.00;97379.94;4937597;29;20023;-78
2021/12/27 15:58:07;;;;;;;2.45;2.00;;;;;;;7.34;100.00;97377.31;4931600;29;20039;-77